createdAt,value
2018-04-18T00:01:01.653Z,102884.63
2018-04-18T00:03:29.967Z,102887.30
2018-04-18T00:05:58.300Z,102888.64
2018-04-18T00:08:26.618Z,102893.72
2018-04-18T00:10:54.987Z,102892.30
2018-04-18T00:13:23.306Z,102893.63
2018-04-18T00:15:52.392Z,102889.00
2018-04-18T00:18:20.728Z,102888.45
2018-04-18T00:20:49.114Z,102895.72
2018-04-18T00:23:17.463Z,102891.89
2018-04-18T00:25:45.823Z,102899.04
2018-04-18T00:28:14.160Z,102900.59
2018-04-18T00:30:42.466Z,102903.55
2018-04-18T00:33:10.778Z,102902.77
2018-04-18T00:35:39.910Z,102908.53
2018-04-18T00:38:08.252Z,102905.55
2018-04-18T00:40:37.338Z,102909.45
2018-04-18T00:43:05.656Z,102911.09
2018-04-18T00:45:33.998Z,102906.62
2018-04-18T00:48:02.335Z,102905.79
2018-04-18T00:50:30.656Z,102906.48
2018-04-18T00:52:58.971Z,102910.15
2018-04-18T00:55:28.073Z,102910.27
2018-04-18T00:57:57.159Z,102907.20
2018-04-18T01:00:25.486Z,102913.84
2018-04-18T01:02:53.825Z,102912.31
2018-04-18T01:05:22.888Z,102908.75
2018-04-18T01:07:51.307Z,102909.90
2018-04-18T01:10:19.655Z,102909.62
2018-04-18T01:12:48.567Z,102911.50
2018-04-18T01:15:16.913Z,102915.06
2018-04-18T01:17:45.245Z,102918.66
2018-04-18T01:20:13.567Z,102923.61
2018-04-18T01:22:41.901Z,102928.16
2018-04-18T01:25:10.247Z,102925.48
2018-04-18T01:27:38.555Z,102925.17
2018-04-18T01:30:07.110Z,102922.16
2018-04-18T01:32:35.431Z,102916.80
2018-04-18T01:35:03.774Z,102924.13
2018-04-18T01:37:32.105Z,102929.13
2018-04-18T01:40:01.232Z,102923.84
2018-04-18T01:42:29.566Z,102933.92
2018-04-18T01:44:57.890Z,102934.95
2018-04-18T01:47:26.216Z,102937.28
2018-04-18T01:49:54.541Z,102935.18
2018-04-18T01:52:23.620Z,102935.80
2018-04-18T01:54:51.946Z,102946.22
2018-04-18T01:57:20.253Z,102943.08
2018-04-18T01:59:48.603Z,102947.78
2018-04-18T02:02:16.918Z,102955.97
2018-04-18T02:04:45.274Z,102954.56
2018-04-18T02:07:13.612Z,102958.87
2018-04-18T02:09:42.605Z,102958.52
2018-04-18T02:12:10.927Z,102961.19
2018-04-18T02:14:39.242Z,102957.44
2018-04-18T02:17:07.633Z,102957.80
2018-04-18T02:19:36.043Z,102957.78
2018-04-18T02:22:04.365Z,102955.20
2018-04-18T02:24:32.698Z,102960.83
2018-04-18T02:27:01.016Z,102964.08
2018-04-18T02:29:29.312Z,102967.47
2018-04-18T02:31:57.641Z,102967.52
2018-04-18T02:34:25.978Z,102971.76
2018-04-18T02:36:54.371Z,102977.15
2018-04-18T02:39:22.713Z,102973.22
2018-04-18T02:41:51.799Z,102976.03
2018-04-18T02:44:20.117Z,102979.21
2018-04-18T02:46:48.436Z,102981.25
2018-04-18T02:49:16.752Z,102983.97
2018-04-18T02:51:45.846Z,102986.50
2018-04-18T02:54:14.936Z,102991.56
2018-04-18T02:56:43.284Z,102989.23
2018-04-18T02:59:11.602Z,102988.83
2018-04-18T03:01:39.998Z,102995.86
2018-04-18T03:04:09.072Z,102995.52
2018-04-18T03:06:37.395Z,103000.06
2018-04-18T03:09:05.726Z,102998.52
2018-04-18T03:11:34.019Z,103002.17
2018-04-18T03:14:02.357Z,102999.44
2018-04-18T03:16:30.675Z,103000.06
2018-04-18T03:18:58.996Z,102996.05
2018-04-18T03:21:27.345Z,103004.62
2018-04-18T03:23:55.672Z,103003.50
2018-04-18T03:26:23.984Z,103004.98
2018-04-18T03:28:52.306Z,103005.53
2018-04-18T03:31:21.377Z,103010.25
2018-04-18T03:33:49.719Z,103015.23
2018-04-18T03:36:18.015Z,103014.40
2018-04-18T03:38:46.338Z,103013.95
2018-04-18T03:41:14.677Z,103017.47
2018-04-18T03:43:42.994Z,103020.41
2018-04-18T03:46:11.303Z,103019.28
2018-04-18T03:48:40.419Z,103015.36
2018-04-18T03:51:08.747Z,103023.55
2018-04-18T03:53:37.091Z,103024.11
2018-04-18T03:56:05.422Z,103025.58
2018-04-18T03:58:34.523Z,103032.64
2018-04-18T04:01:02.869Z,103033.48
2018-04-18T04:03:31.317Z,103032.73
2018-04-18T04:06:00.379Z,103042.64
2018-04-18T04:08:28.710Z,103043.52
2018-04-18T04:10:57.026Z,103045.00
2018-04-18T04:13:25.335Z,103050.41
2018-04-18T04:15:53.669Z,103047.45
2018-04-18T04:18:39.744Z,103052.59
2018-04-18T04:21:25.955Z,103056.23
2018-04-18T04:24:11.943Z,103057.23
2018-04-18T04:26:40.257Z,103062.38
2018-04-18T04:29:08.571Z,103059.72
2018-04-18T04:31:37.021Z,103065.36
2018-04-18T04:34:06.031Z,103072.66
2018-04-18T04:36:35.123Z,103069.41
2018-04-18T04:39:04.196Z,103074.61
2018-04-18T04:41:32.522Z,103069.09
2018-04-18T04:44:01.622Z,103072.39
2018-04-18T04:46:29.980Z,103077.03
2018-04-18T04:48:58.290Z,103081.28
2018-04-18T04:51:26.608Z,103075.59
2018-04-18T04:53:54.926Z,103080.79
2018-04-18T04:56:23.270Z,103084.76
2018-04-18T04:58:51.616Z,103083.00
2018-04-18T05:01:19.940Z,103088.52
2018-04-18T05:03:48.918Z,103091.17
2018-04-18T05:06:17.236Z,103092.92
2018-04-18T05:08:45.566Z,103097.87
2018-04-18T05:11:17.030Z,103097.23
2018-04-18T05:13:45.807Z,103093.53
2018-04-18T05:16:14.307Z,103099.00
2018-04-18T05:18:42.744Z,103090.09
2018-04-18T05:21:11.130Z,103105.55
2018-04-18T05:23:40.239Z,103108.58
2018-04-18T05:26:09.634Z,103108.40
2018-04-18T05:28:38.738Z,103115.27
2018-04-18T05:31:07.864Z,103112.38
2018-04-18T05:33:37.084Z,103114.55
2018-04-18T05:36:05.398Z,103122.75
2018-04-18T05:38:33.801Z,103118.03
2018-04-18T05:41:02.225Z,103122.95
2018-04-18T05:43:31.671Z,103127.48
2018-04-18T05:46:00.777Z,103128.58
2018-04-18T05:48:29.110Z,103132.97
2018-04-18T05:50:57.443Z,103129.27
2018-04-18T05:53:25.746Z,103129.09
2018-04-18T05:55:54.843Z,103127.25
2018-04-18T05:58:23.915Z,103129.20
2018-04-18T06:00:52.246Z,103124.81
2018-04-18T06:03:20.572Z,103126.67
2018-04-18T06:05:48.956Z,103135.20
2018-04-18T06:08:17.309Z,103135.83
2018-04-18T06:10:45.620Z,103137.98
2018-04-18T06:13:13.991Z,103129.23
2018-04-18T06:15:42.383Z,103134.80
2018-04-18T06:18:10.709Z,103137.02
2018-04-18T06:20:39.823Z,103137.03
2018-04-18T06:23:08.123Z,103139.80
2018-04-18T06:25:36.459Z,103138.24
2018-04-18T06:28:05.546Z,103136.83
2018-04-18T06:30:33.922Z,103142.14
2018-04-18T06:33:02.249Z,103141.40
2018-04-18T06:35:30.588Z,103148.91
2018-04-18T06:37:58.904Z,103145.87
2018-04-18T06:40:27.231Z,103149.56
2018-04-18T06:42:55.633Z,103149.64
2018-04-18T06:45:23.970Z,103147.52
2018-04-18T06:47:52.305Z,103149.22
2018-04-18T06:50:20.657Z,103150.27
2018-04-18T06:52:49.029Z,103154.06
2018-04-18T06:55:17.341Z,103153.73
2018-04-18T06:57:45.659Z,103156.47
2018-04-18T07:00:13.983Z,103157.12
2018-04-18T07:02:42.315Z,103154.42
2018-04-18T07:05:11.417Z,103158.94
2018-04-18T07:07:40.538Z,103160.22
2018-04-18T07:10:08.854Z,103162.23
2018-04-18T07:12:37.202Z,103162.20
2018-04-18T07:15:05.537Z,103162.51
2018-04-18T07:17:33.893Z,103162.20
2018-04-18T07:20:02.226Z,103163.51
2018-04-18T07:22:31.344Z,103168.44
2018-04-18T07:24:59.690Z,103168.27
2018-04-18T07:27:28.044Z,103167.23
2018-04-18T07:29:56.358Z,103169.40
2018-04-18T07:32:24.748Z,103172.45
2018-04-18T07:34:53.800Z,103183.81
2018-04-18T07:37:22.120Z,103176.16
2018-04-18T07:39:50.499Z,103178.64
2018-04-18T07:42:18.851Z,103178.70
2018-04-18T07:44:47.495Z,103180.14
2018-04-18T07:47:16.568Z,103184.38
2018-04-18T07:49:44.886Z,103191.50
2018-04-18T07:52:13.195Z,103192.07
2018-04-18T07:54:41.528Z,103199.23
2018-04-18T07:57:10.597Z,103198.96
2018-04-18T07:59:41.267Z,103199.30
2018-04-18T08:02:10.366Z,103203.48
2018-04-18T08:04:39.484Z,103200.95
2018-04-18T08:07:07.810Z,103203.31
2018-04-18T08:09:36.892Z,103209.77
2018-04-18T08:12:05.222Z,103207.34
2018-04-18T08:14:33.523Z,103210.98
2018-04-18T08:17:01.946Z,103214.52
2018-04-18T08:19:30.271Z,103216.50
2018-04-18T08:21:59.386Z,103222.50
2018-04-18T08:24:27.800Z,103216.14
2018-04-18T08:26:56.152Z,103221.85
2018-04-18T08:29:24.457Z,103224.80
2018-04-18T08:31:52.790Z,103233.44
2018-04-18T08:34:21.166Z,103224.07
2018-04-18T08:36:49.485Z,103223.78
2018-04-18T08:39:17.804Z,103219.09
2018-04-18T08:41:46.166Z,103225.15
2018-04-18T08:44:14.554Z,103217.66
2018-04-18T08:46:42.977Z,103226.84
2018-04-18T08:49:11.590Z,103222.79
2018-04-18T08:51:40.709Z,103225.56
2018-04-18T08:54:09.262Z,103227.83
2018-04-18T08:56:37.571Z,103226.47
2018-04-18T08:59:05.899Z,103229.36
2018-04-18T09:01:34.229Z,103225.34
2018-04-18T09:04:03.326Z,103226.16
2018-04-18T09:06:31.729Z,103226.00
2018-04-18T09:09:00.044Z,103227.30
2018-04-18T09:11:28.373Z,103227.18
2018-04-18T09:13:57.467Z,103229.62
2018-04-18T09:16:26.561Z,103224.65
2018-04-18T09:18:55.648Z,103226.30
2018-04-18T09:21:25.412Z,103225.24
2018-04-18T09:23:53.730Z,103224.97
2018-04-18T09:26:22.068Z,103225.09
2018-04-18T09:28:50.408Z,103226.14
2018-04-18T09:31:18.726Z,103228.31
2018-04-18T09:33:47.044Z,103230.97
2018-04-18T09:36:15.369Z,103224.13
2018-04-18T09:38:44.519Z,103227.17
2018-04-18T09:41:12.860Z,103231.47
2018-04-18T09:43:41.200Z,103227.67
2018-04-18T09:46:10.284Z,103230.07
2018-04-18T09:48:38.622Z,103229.80
2018-04-18T09:51:07.691Z,103231.32
2018-04-18T09:53:36.013Z,103231.70
2018-04-18T09:56:04.331Z,103231.66
2018-04-18T09:58:32.685Z,103228.41
2018-04-18T10:01:01.753Z,103224.86
2018-04-18T10:03:30.822Z,103227.41
2018-04-18T10:05:59.128Z,103227.71
2018-04-18T10:08:27.506Z,103227.56
2018-04-18T10:10:55.856Z,103227.59
2018-04-18T10:13:25.001Z,103228.72
2018-04-18T10:15:54.092Z,103220.67
2018-04-18T10:18:22.400Z,103224.56
2018-04-18T10:20:50.794Z,103223.86
2018-04-18T10:23:19.103Z,103225.84
2018-04-18T10:25:47.438Z,103219.26
2018-04-18T10:28:15.771Z,103216.06
2018-04-18T10:30:44.098Z,103215.81
2018-04-18T10:33:13.192Z,103214.78
2018-04-18T10:35:42.259Z,103217.17
2018-04-18T10:38:10.620Z,103215.39
2018-04-18T10:40:38.893Z,103204.31
2018-04-18T10:43:07.205Z,103208.25
2018-04-18T10:45:35.513Z,103207.14
2018-04-18T10:48:04.586Z,103211.55
2018-04-18T10:50:32.926Z,103211.48
2018-04-18T10:53:01.254Z,103210.73
2018-04-18T10:55:29.568Z,103211.21
2018-04-18T10:57:58.640Z,103206.58
2018-04-18T11:00:26.939Z,103205.65
2018-04-18T11:02:56.037Z,103202.58
2018-04-18T11:05:25.104Z,103207.19
2018-04-18T11:07:53.505Z,103210.19
2018-04-18T11:10:21.804Z,103211.37
2018-04-18T11:12:50.886Z,103209.44
2018-04-18T11:15:19.980Z,103213.27
2018-04-18T11:17:48.284Z,103212.57
2018-04-18T11:20:17.392Z,103208.38
2018-04-18T11:22:45.711Z,103200.55
2018-04-18T11:25:14.140Z,103194.51
2018-04-18T11:27:45.490Z,103194.95
2018-04-18T11:30:13.890Z,103197.86
2018-04-18T11:32:43.127Z,103188.34
2018-04-18T11:35:13.310Z,103188.54
2018-04-18T11:37:41.783Z,103180.39
2018-04-18T11:40:10.123Z,103187.32
2018-04-18T11:42:38.434Z,103182.55
2018-04-18T11:45:06.755Z,103189.47
2018-04-18T11:47:35.103Z,103192.23
2018-04-18T11:50:03.429Z,103183.55
2018-04-18T11:52:31.751Z,103177.94
2018-04-18T11:55:00.073Z,103177.87
2018-04-18T11:57:29.210Z,103172.48
2018-04-18T11:59:58.300Z,103168.11
2018-04-18T12:02:26.745Z,103166.20
2018-04-18T12:04:55.063Z,103162.92
2018-04-18T12:07:23.421Z,103159.10
2018-04-18T12:09:52.487Z,103155.41
2018-04-18T12:12:20.834Z,103163.33
2018-04-18T12:14:49.170Z,103154.48
2018-04-18T12:17:18.251Z,103158.76
2018-04-18T12:19:47.319Z,103152.33
2018-04-18T12:22:15.657Z,103160.53
2018-04-18T12:24:44.764Z,103158.39
2018-04-18T12:27:14.482Z,103145.52
2018-04-18T12:29:42.860Z,103158.14
2018-04-18T12:32:11.967Z,103153.00
2018-04-18T12:34:40.283Z,103158.45
2018-04-18T12:37:08.586Z,103154.73
2018-04-18T12:39:36.908Z,103152.33
2018-04-18T12:42:05.996Z,103143.27
2018-04-18T12:44:35.092Z,103148.00
2018-04-18T12:47:04.194Z,103141.31
2018-04-18T12:49:33.256Z,103137.00
2018-04-18T12:52:02.456Z,103131.82
2018-04-18T12:54:30.775Z,103126.95
2018-04-18T12:56:59.843Z,103127.33
2018-04-18T12:59:28.177Z,103122.64
2018-04-18T13:01:56.493Z,103122.47
2018-04-18T13:04:24.828Z,103121.02
2018-04-18T13:06:53.928Z,103113.35
2018-04-18T13:09:23.016Z,103107.50
2018-04-18T13:11:52.149Z,103101.07
2018-04-18T13:14:20.488Z,103104.66
2018-04-18T13:16:48.859Z,103107.54
2018-04-18T13:19:17.175Z,103104.09
2018-04-18T13:21:45.729Z,103101.30
2018-04-18T13:24:14.051Z,103098.63
2018-04-18T13:26:42.391Z,103098.17
2018-04-18T13:29:10.830Z,103095.19
2018-04-18T13:31:39.226Z,103090.33
2018-04-18T13:34:07.531Z,103093.40
2018-04-18T13:36:35.847Z,103086.98
2018-04-18T13:39:04.924Z,103091.81
2018-04-18T13:41:33.331Z,103088.77
2018-04-18T13:44:02.436Z,103084.92
2018-04-18T13:46:31.548Z,103076.52
2018-04-18T13:48:59.877Z,103079.56
2018-04-18T13:51:28.979Z,103078.59
2018-04-18T13:53:57.288Z,103072.34
2018-04-18T13:56:26.389Z,103065.58
2018-04-18T13:58:54.814Z,103072.88
2018-04-18T14:01:23.252Z,103061.73
2018-04-18T14:03:51.564Z,103061.83
2018-04-18T14:06:19.889Z,103059.02
2018-04-18T14:08:48.216Z,103057.59
2018-04-18T14:11:16.528Z,103051.84
2018-04-18T14:13:44.871Z,103050.99
2018-04-18T14:16:13.966Z,103050.00
2018-04-18T14:18:43.040Z,103053.23
2018-04-18T14:21:11.381Z,103047.56
2018-04-18T14:23:39.711Z,103055.22
2018-04-18T14:26:08.044Z,103042.44
2018-04-18T14:28:36.403Z,103046.76
2018-04-18T14:31:05.560Z,103039.14
2018-04-18T14:33:33.893Z,103032.84
2018-04-18T14:36:02.244Z,103037.25
2018-04-18T14:38:30.627Z,103037.65
2018-04-18T14:40:58.942Z,103034.70
2018-04-18T14:43:27.264Z,103025.12
2018-04-18T14:45:55.586Z,103020.25
2018-04-18T14:48:23.892Z,103025.87
2018-04-18T14:50:52.673Z,103024.19
2018-04-18T14:53:21.757Z,103022.61
2018-04-18T14:55:50.843Z,103022.97
2018-04-18T14:58:19.168Z,103020.48
2018-04-18T15:00:47.475Z,103016.52
2018-04-18T15:03:15.944Z,103011.05
2018-04-18T15:05:44.278Z,103003.35
2018-04-18T15:08:12.638Z,103008.62
2018-04-18T15:10:41.003Z,103013.73
2018-04-18T15:13:09.320Z,103006.77
2018-04-18T15:15:37.808Z,103009.53
2018-04-18T15:18:06.154Z,102999.72
2018-04-18T15:20:34.456Z,102997.25
2018-04-18T15:23:02.777Z,102992.26
2018-04-18T15:25:32.027Z,102993.27
2018-04-18T15:28:00.336Z,102995.78
2018-04-18T15:30:28.749Z,102988.32
2018-04-18T15:32:57.830Z,102987.64
2018-04-18T15:35:26.171Z,102982.77
2018-04-18T15:37:54.542Z,102984.55
2018-04-18T15:40:22.839Z,102986.98
2018-04-18T15:42:51.206Z,102990.15
2018-04-18T15:45:19.532Z,102984.27
2018-04-18T15:47:47.847Z,102985.66
2018-04-18T15:50:16.932Z,102987.00
2018-04-18T15:52:46.028Z,102989.78
2018-04-18T15:55:15.109Z,102981.56
2018-04-18T15:57:43.546Z,102980.98
2018-04-18T16:00:11.921Z,102982.70
2018-04-18T16:02:40.262Z,102981.41
2018-04-18T16:05:08.598Z,102980.64
2018-04-18T16:07:36.980Z,102983.59
2018-04-18T16:10:05.254Z,102978.78
2018-04-18T16:12:33.629Z,102979.70
2018-04-18T16:15:01.964Z,102978.45
2018-04-18T16:17:30.293Z,102972.97
2018-04-18T16:19:58.813Z,102978.28
2018-04-18T16:22:27.158Z,102979.88
2018-04-18T16:24:56.165Z,102972.13
2018-04-18T16:27:24.657Z,102974.36
2018-04-18T16:29:52.993Z,102972.44
2018-04-18T16:32:21.319Z,102970.62
2018-04-18T16:34:49.660Z,102975.37
2018-04-18T16:37:18.024Z,102980.70
2018-04-18T16:39:46.389Z,102974.75
2018-04-18T16:42:14.741Z,102976.56
2018-04-18T16:44:43.082Z,102973.97
2018-04-18T16:47:11.405Z,102975.45
2018-04-18T16:49:39.743Z,102972.93
2018-04-18T16:52:08.081Z,102974.64
2018-04-18T16:54:36.440Z,102970.09
2018-04-18T16:57:05.554Z,102974.53
2018-04-18T16:59:34.632Z,102976.55
2018-04-18T17:02:03.739Z,102979.16
2018-04-18T17:04:32.858Z,102979.33
2018-04-18T17:07:01.194Z,102978.77
2018-04-18T17:09:29.525Z,102976.72
2018-04-18T17:11:57.836Z,102969.39
2018-04-18T17:14:26.147Z,102975.80
2018-04-18T17:16:54.473Z,102966.58
2018-04-18T17:19:22.820Z,102974.00
2018-04-18T17:21:51.931Z,102965.37
2018-04-18T17:24:21.011Z,102967.70
2018-04-18T17:26:53.972Z,102967.88
2018-04-18T17:29:22.581Z,102965.92
2018-04-18T17:31:50.915Z,102974.90
2018-04-18T17:34:19.273Z,102968.91
2018-04-18T17:36:48.971Z,102968.16
2018-04-18T17:39:18.118Z,102970.27
2018-04-18T17:41:46.457Z,102962.33
2018-04-18T17:44:15.553Z,102961.56
2018-04-18T17:46:44.682Z,102962.39
2018-04-18T17:49:13.045Z,102970.55
2018-04-18T17:51:42.113Z,102972.34
2018-04-18T17:54:10.439Z,102969.31
2018-04-18T17:56:39.430Z,102973.02
2018-04-18T17:59:07.761Z,102975.56
2018-04-18T18:01:36.102Z,102966.13
2018-04-18T18:04:04.474Z,102966.78
2018-04-18T18:06:33.569Z,102971.44
2018-04-18T18:09:02.650Z,102973.09
2018-04-18T18:11:31.133Z,102972.24
2018-04-18T18:13:59.442Z,102973.38
2018-04-18T18:16:28.522Z,102978.87
2018-04-18T18:18:57.668Z,102980.61
2018-04-18T18:21:26.014Z,102983.61
2018-04-18T18:23:55.138Z,102986.95
2018-04-18T18:26:23.465Z,102986.99
2018-04-18T18:28:52.592Z,102989.91
2018-04-18T18:31:21.047Z,102993.82
2018-04-18T18:33:49.372Z,102992.97
2018-04-18T18:36:18.466Z,102994.06
2018-04-18T18:38:47.571Z,102999.92
2018-04-18T18:41:15.889Z,103000.08
2018-04-18T18:43:44.220Z,102999.00
2018-04-18T18:46:12.549Z,103007.41
2018-04-18T18:48:40.908Z,103004.66
2018-04-18T18:51:09.221Z,103006.67
2018-04-18T18:53:37.539Z,103003.77
2018-04-18T18:56:05.849Z,103011.05
2018-04-18T18:58:34.168Z,103009.59
2018-04-18T19:01:02.485Z,103010.67
2018-04-18T19:03:30.859Z,103010.92
2018-04-18T19:05:59.230Z,103011.09
2018-04-18T19:08:27.545Z,103012.27
2018-04-18T19:10:56.625Z,103005.72
2018-04-18T19:13:24.961Z,103008.93
2018-04-18T19:15:53.307Z,103012.89
2018-04-18T19:18:23.345Z,103018.20
2018-04-18T19:20:53.777Z,103011.42
2018-04-18T19:23:22.180Z,103008.81
2018-04-18T19:25:51.397Z,103012.33
2018-04-18T19:28:19.796Z,103009.81
2018-04-18T19:30:48.129Z,103016.02
2018-04-18T19:33:17.048Z,103015.67
2018-04-18T19:35:45.407Z,103013.37
2018-04-18T19:38:13.770Z,103011.98
2018-04-18T19:40:42.921Z,103017.91
2018-04-18T19:43:11.321Z,103014.99
2018-04-18T19:45:39.670Z,103017.97
2018-04-18T19:48:07.995Z,103009.64
2018-04-18T19:50:36.468Z,103010.91
2018-04-18T19:53:05.563Z,103013.88
2018-04-18T19:55:33.884Z,103014.62
2018-04-18T19:58:03.023Z,103015.05
2018-04-18T20:00:31.374Z,103015.25
2018-04-18T20:03:01.170Z,103017.77
2018-04-18T20:05:29.494Z,103021.48
2018-04-18T20:07:57.810Z,103019.59
2018-04-18T20:10:26.412Z,103013.86
2018-04-18T20:12:54.760Z,103022.38
2018-04-18T20:15:23.088Z,103014.73
2018-04-18T20:17:52.190Z,103014.31
2018-04-18T20:20:20.511Z,103020.98
2018-04-18T20:22:48.828Z,103019.35
2018-04-18T20:25:17.160Z,103022.08
2018-04-18T20:27:46.240Z,103018.31
2018-04-18T20:30:14.557Z,103016.23
2018-04-18T20:32:42.954Z,103012.63
2018-04-18T20:35:11.524Z,103022.78
2018-04-18T20:37:40.003Z,103020.20
2018-04-18T20:40:08.330Z,103019.77
2018-04-18T20:42:36.630Z,103025.03
2018-04-18T20:45:04.949Z,103030.20
2018-04-18T20:47:33.262Z,103026.26
2018-04-18T20:50:01.598Z,103023.59
2018-04-18T20:52:30.695Z,103024.93
2018-04-18T20:54:59.797Z,103023.67
2018-04-18T20:57:28.921Z,103021.78
2018-04-18T20:59:57.262Z,103022.31
2018-04-18T21:02:25.579Z,103019.34
2018-04-18T21:04:53.923Z,103027.19
2018-04-18T21:07:22.737Z,103015.81
2018-04-18T21:09:51.967Z,103021.50
2018-04-18T21:12:21.329Z,103024.43
2018-04-18T21:14:49.807Z,103026.52
2018-04-18T21:17:18.145Z,103021.22
2018-04-18T21:19:46.471Z,103019.44
2018-04-18T21:22:14.810Z,103015.27
2018-04-18T21:24:43.139Z,103020.50
2018-04-18T21:27:11.493Z,103016.77
2018-04-18T21:29:39.851Z,103021.34
2018-04-18T21:32:08.171Z,103015.97
2018-04-18T21:34:36.793Z,103011.84
2018-04-18T21:37:05.890Z,103015.98
2018-04-18T21:39:35.003Z,103013.53
2018-04-18T21:42:03.354Z,103018.15
2018-04-18T21:44:31.682Z,103018.56
2018-04-18T21:47:00.015Z,103023.98
2018-04-18T21:49:28.340Z,103021.77
2018-04-18T21:51:56.827Z,103016.80
2018-04-18T21:54:25.168Z,103015.03
2018-04-18T21:56:54.979Z,103016.33
2018-04-18T21:59:24.232Z,103010.07
2018-04-18T22:01:52.544Z,103012.49
2018-04-18T22:04:20.878Z,103017.64
2018-04-18T22:06:49.230Z,103013.48
2018-04-18T22:09:17.590Z,103009.92
2018-04-18T22:11:45.914Z,103010.24
2018-04-18T22:14:15.265Z,103010.99
2018-04-18T22:16:43.590Z,103009.97
2018-04-18T22:19:11.918Z,103003.30
2018-04-18T22:21:40.247Z,103008.50
2018-04-18T22:24:08.601Z,103004.78
2018-04-18T22:26:36.961Z,103007.17
2018-04-18T22:29:05.292Z,103002.76
2018-04-18T22:31:33.604Z,103001.65
2018-04-18T22:34:01.938Z,102998.72
2018-04-18T22:36:30.265Z,102998.72
2018-04-18T22:38:58.640Z,102991.48
2018-04-18T22:41:27.735Z,102993.67
2018-04-18T22:43:56.830Z,102995.77
2018-04-18T22:46:25.916Z,102996.19
2018-04-18T22:48:54.270Z,102992.23
2018-04-18T22:51:22.649Z,102994.58
2018-04-18T22:53:51.001Z,102987.50
2018-04-18T22:56:19.319Z,102988.86
2018-04-18T22:58:47.637Z,102983.74
2018-04-18T23:01:16.753Z,102980.81
2018-04-18T23:03:45.069Z,102977.01
2018-04-18T23:06:13.376Z,102976.59
2018-04-18T23:08:41.681Z,102975.97
2018-04-18T23:11:09.992Z,102976.33
2018-04-18T23:13:38.298Z,102968.01
2018-04-18T23:16:06.621Z,102965.88
2018-04-18T23:18:34.970Z,102968.45
2018-04-18T23:21:03.302Z,102964.88
2018-04-18T23:23:32.383Z,102960.37
2018-04-18T23:26:00.704Z,102965.42
2018-04-18T23:28:29.026Z,102949.17
2018-04-18T23:30:58.086Z,102956.05
2018-04-18T23:33:26.406Z,102957.40
2018-04-18T23:35:54.705Z,102952.80
2018-04-18T23:38:23.021Z,102947.34
2018-04-18T23:40:51.637Z,102947.91
2018-04-18T23:43:19.968Z,102942.34
2018-04-18T23:45:49.049Z,102939.83
2018-04-18T23:48:17.376Z,102939.59
2018-04-18T23:50:45.687Z,102935.13
2018-04-18T23:53:14.001Z,102938.76
2018-04-18T23:55:42.321Z,102934.72
2018-04-18T23:58:10.645Z,102927.51
